sensor_id;sensor_type;location;lat;lon;timestamp;temperature;humidity
2439;DHT22;14509;47.992;7.848;2024-02-28T19:22:35;14.70;43.90
2439;DHT22;14509;47.992;7.848;2024-02-28T19:24:38;14.70;44.10
2439;DHT22;14509;47.992;7.848;2024-02-28T19:26:40;14.60;44.10
2439;DHT22;14509;47.992;7.848;2024-02-28T19:28:43;14.50;44.40
2439;DHT22;14509;47.992;7.848;2024-02-28T19:30:45;14.50;44.10
2439;DHT22;14509;47.992;7.848;2024-02-28T19:32:47;14.50;44.90
2439;DHT22;14509;47.992;7.848;2024-02-28T19:34:49;14.90;45.20
2439;DHT22;14509;47.992;7.848;2024-02-28T19:36:51;14.40;45.80
2439;DHT22;14509;47.992;7.848;2024-02-28T19:38:54;14.30;46.60
2439;DHT22;14509;47.992;7.848;2024-02-28T19:41:00;14.10;46.40
2439;DHT22;14509;47.992;7.848;2024-02-28T19:43:02;14.10;46.60
2439;DHT22;14509;47.992;7.848;2024-02-28T19:45:03;14.10;47.60
2439;DHT22;14509;47.992;7.848;2024-02-28T19:47:06;13.90;47.20
2439;DHT22;14509;47.992;7.848;2024-02-28T19:49:06;13.60;46.50
2439;DHT22;14509;47.992;7.848;2024-02-28T19:51:09;13.80;47.30
2439;DHT22;14509;47.992;7.848;2024-02-28T19:53:11;13.70;47.10
2439;DHT22;14509;47.992;7.848;2024-02-28T19:55:15;13.60;47.00
2439;DHT22;14509;47.992;7.848;2024-02-28T19:57:17;13.40;46.40
2439;DHT22;14509;47.992;7.848;2024-02-28T19:59:19;13.90;46.80
2439;DHT22;14509;47.992;7.848;2024-02-28T20:01:36;13.40;46.50
2439;DHT22;14509;47.992;7.848;2024-02-28T20:03:37;13.10;46.80
2439;DHT22;14509;47.992;7.848;2024-02-28T20:05:38;13.20;47.40
2439;DHT22;14509;47.992;7.848;2024-02-28T20:07:40;13.80;48.30
2439;DHT22;14509;47.992;7.848;2024-02-28T20:09:43;13.10;48.10
2439;DHT22;14509;47.992;7.848;2024-02-28T20:11:46;12.90;48.20
2439;DHT22;14509;47.992;7.848;2024-02-28T20:13:48;13.10;48.80
2439;DHT22;14509;47.992;7.848;2024-02-28T20:15:50;13.40;49.30
2439;DHT22;14509;47.992;7.848;2024-02-28T20:17:54;12.90;49.00
2439;DHT22;14509;47.992;7.848;2024-02-28T20:19:56;12.80;49.20
2439;DHT22;14509;47.992;7.848;2024-02-28T20:21:58;12.50;49.00
2439;DHT22;14509;47.992;7.848;2024-02-28T20:24:00;12.90;49.50
2439;DHT22;14509;47.992;7.848;2024-02-28T20:26:02;12.80;49.60
2439;DHT22;14509;47.992;7.848;2024-02-28T20:28:05;12.80;49.80
2439;DHT22;14509;47.992;7.848;2024-02-28T20:30:08;12.80;50.10
2439;DHT22;14509;47.992;7.848;2024-02-28T20:32:10;12.70;50.20
2439;DHT22;14509;47.992;7.848;2024-02-28T20:34:12;12.70;50.30
2439;DHT22;14509;47.992;7.848;2024-02-28T20:36:13;12.60;50.70
2439;DHT22;14509;47.992;7.848;2024-02-28T20:38:15;12.70;50.80
2439;DHT22;14509;47.992;7.848;2024-02-28T20:40:17;12.60;50.90
2439;DHT22;14509;47.992;7.848;2024-02-28T20:42:19;12.60;50.90
2439;DHT22;14509;47.992;7.848;2024-02-28T20:44:22;12.50;51.00
2439;DHT22;14509;47.992;7.848;2024-02-28T20:46:24;12.50;51.20
2439;DHT22;14509;47.992;7.848;2024-02-28T20:48:26;12.50;51.40
2439;DHT22;14509;47.992;7.848;2024-02-28T20:50:28;12.50;51.60
2439;DHT22;14509;47.992;7.848;2024-02-28T20:52:32;12.60;51.90
2439;DHT22;14509;47.992;7.848;2024-02-28T20:54:34;12.60;52.60
2439;DHT22;14509;47.992;7.848;2024-02-28T20:56:36;12.40;51.80
2439;DHT22;14509;47.992;7.848;2024-02-28T20:58:39;12.60;51.90
2439;DHT22;14509;47.992;7.848;2024-02-28T21:00:42;12.60;51.90
2439;DHT22;14509;47.992;7.848;2024-02-28T21:02:44;12.70;51.90
2439;DHT22;14509;47.992;7.848;2024-02-28T21:04:46;12.80;51.90
2439;DHT22;14509;47.992;7.848;2024-02-28T21:06:48;12.70;51.70
2439;DHT22;14509;47.992;7.848;2024-02-28T21:08:50;12.80;51.70
2439;DHT22;14509;47.992;7.848;2024-02-28T21:10:52;12.70;51.50
2439;DHT22;14509;47.992;7.848;2024-02-28T21:12:53;12.30;51.40
2439;DHT22;14509;47.992;7.848;2024-02-28T21:14:56;12.70;51.70
2439;DHT22;14509;47.992;7.848;2024-02-28T21:16:58;12.70;51.60
2439;DHT22;14509;47.992;7.848;2024-02-28T21:19:00;12.70;51.20
2439;DHT22;14509;47.992;7.848;2024-02-28T21:21:02;12.60;51.20
2439;DHT22;14509;47.992;7.848;2024-02-28T21:23:05;12.70;51.50
2439;DHT22;14509;47.992;7.848;2024-02-28T21:25:07;13.10;51.80
2439;DHT22;14509;47.992;7.848;2024-02-28T21:27:09;12.60;51.70
2439;DHT22;14509;47.992;7.848;2024-02-28T21:29:11;12.60;52.30
2439;DHT22;14509;47.992;7.848;2024-02-28T21:31:12;12.40;52.60
2439;DHT22;14509;47.992;7.848;2024-02-28T21:33:16;12.60;53.50
2439;DHT22;14509;47.992;7.848;2024-02-28T21:35:18;12.40;53.50
2439;DHT22;14509;47.992;7.848;2024-02-28T21:37:19;12.70;54.20
2439;DHT22;14509;47.992;7.848;2024-02-28T21:39:22;12.30;54.30
2439;DHT22;14509;47.992;7.848;2024-02-28T21:41:24;12.30;54.90
2439;DHT22;14509;47.992;7.848;2024-02-28T21:43:26;12.20;55.00
2439;DHT22;14509;47.992;7.848;2024-02-28T21:45:27;12.30;57.50
2439;DHT22;14509;47.992;7.848;2024-02-28T21:47:29;12.20;55.70
2439;DHT22;14509;47.992;7.848;2024-02-28T21:49:32;12.70;60.00
2439;DHT22;14509;47.992;7.848;2024-02-28T21:51:34;12.30;64.70
2439;DHT22;14509;47.992;7.848;2024-02-28T21:53:36;12.50;52.40
2439;DHT22;14509;47.992;7.848;2024-02-28T21:55:38;12.10;52.20
2439;DHT22;14509;47.992;7.848;2024-02-28T21:57:39;11.90;51.70
2439;DHT22;14509;47.992;7.848;2024-02-28T21:59:45;12.00;52.30
2439;DHT22;14509;47.992;7.848;2024-02-28T22:01:47;11.90;52.40
2439;DHT22;14509;47.992;7.848;2024-02-28T22:03:49;11.90;52.60
2439;DHT22;14509;47.992;7.848;2024-02-28T22:05:52;11.90;52.60
2439;DHT22;14509;47.992;7.848;2024-02-28T22:07:54;11.80;52.70
2439;DHT22;14509;47.992;7.848;2024-02-28T22:09:56;11.80;52.80
2439;DHT22;14509;47.992;7.848;2024-02-28T22:11:58;11.70;52.80
2439;DHT22;14509;47.992;7.848;2024-02-28T22:14:00;11.60;52.60
2439;DHT22;14509;47.992;7.848;2024-02-28T22:16:02;11.60;53.30
2439;DHT22;14509;47.992;7.848;2024-02-28T22:18:04;11.60;53.60
2439;DHT22;14509;47.992;7.848;2024-02-28T22:20:07;11.60;53.30
2439;DHT22;14509;47.992;7.848;2024-02-28T22:22:09;11.50;53.20
2439;DHT22;14509;47.992;7.848;2024-02-28T22:24:12;11.60;65.10
2439;DHT22;14509;47.992;7.848;2024-02-28T22:26:14;11.40;53.10
2439;DHT22;14509;47.992;7.848;2024-02-28T22:28:15;11.30;53.40
2439;DHT22;14509;47.992;7.848;2024-02-28T22:30:17;11.30;59.30
2439;DHT22;14509;47.992;7.848;2024-02-28T22:32:18;11.10;52.80
2439;DHT22;14509;47.992;7.848;2024-02-28T22:34:20;11.20;53.50
2439;DHT22;14509;47.992;7.848;2024-02-28T22:36:21;11.20;53.50
2439;DHT22;14509;47.992;7.848;2024-02-28T22:38:24;11.10;53.60
2439;DHT22;14509;47.992;7.848;2024-02-28T22:40:26;11.00;53.10
2439;DHT22;14509;47.992;7.848;2024-02-28T22:42:28;11.10;53.80
2439;DHT22;14509;47.992;7.848;2024-02-28T22:44:30;10.90;60.90
2439;DHT22;14509;47.992;7.848;2024-02-28T22:46:31;10.90;53.90
2439;DHT22;14509;47.992;7.848;2024-02-28T22:48:33;10.90;54.50
2439;DHT22;14509;47.992;7.848;2024-02-28T22:50:34;10.80;53.90
2439;DHT22;14509;47.992;7.848;2024-02-28T22:52:37;10.70;54.00
2439;DHT22;14509;47.992;7.848;2024-02-28T22:54:42;10.70;54.10
2439;DHT22;14509;47.992;7.848;2024-02-28T22:56:44;10.50;54.10
2439;DHT22;14509;47.992;7.848;2024-02-28T22:58:47;10.70;54.40
2439;DHT22;14509;47.992;7.848;2024-02-28T23:00:49;10.50;53.80
2439;DHT22;14509;47.992;7.848;2024-02-28T23:02:51;10.60;54.40
2439;DHT22;14509;47.992;7.848;2024-02-28T23:04:52;10.80;54.70
2439;DHT22;14509;47.992;7.848;2024-02-28T23:06:54;10.60;54.90
2439;DHT22;14509;47.992;7.848;2024-02-28T23:08:56;10.60;55.10
2439;DHT22;14509;47.992;7.848;2024-02-28T23:10:59;10.50;55.10
2439;DHT22;14509;47.992;7.848;2024-02-28T23:13:00;10.60;55.30
2439;DHT22;14509;47.992;7.848;2024-02-28T23:15:03;11.20;55.90
2439;DHT22;14509;47.992;7.848;2024-02-28T23:17:05;10.50;55.50
2439;DHT22;14509;47.992;7.848;2024-02-28T23:19:06;10.50;55.60
2439;DHT22;14509;47.992;7.848;2024-02-28T23:21:08;10.50;55.70
2439;DHT22;14509;47.992;7.848;2024-02-28T23:23:11;10.50;55.70
2439;DHT22;14509;47.992;7.848;2024-02-28T23:25:12;10.50;55.80
2439;DHT22;14509;47.992;7.848;2024-02-28T23:27:15;10.50;55.90
2439;DHT22;14509;47.992;7.848;2024-02-28T23:29:17;10.50;55.80
2439;DHT22;14509;47.992;7.848;2024-02-28T23:31:19;11.40;56.50
2439;DHT22;14509;47.992;7.848;2024-02-28T23:33:22;11.70;56.80
2439;DHT22;14509;47.992;7.848;2024-02-28T23:35:24;10.40;55.70
2439;DHT22;14509;47.992;7.848;2024-02-28T23:37:25;10.40;55.70
2439;DHT22;14509;47.992;7.848;2024-02-28T23:39:27;10.40;55.60
2439;DHT22;14509;47.992;7.848;2024-02-28T23:41:29;8.70;55.20
2439;DHT22;14509;47.992;7.848;2024-02-28T23:43:34;10.40;55.70
2439;DHT22;14509;47.992;7.848;2024-02-28T23:45:36;10.70;56.00
2439;DHT22;14509;47.992;7.848;2024-02-28T23:47:36;10.30;55.60
2439;DHT22;14509;47.992;7.848;2024-02-28T23:49:38;10.30;55.70
2439;DHT22;14509;47.992;7.848;2024-02-28T23:51:42;10.30;55.70
2439;DHT22;14509;47.992;7.848;2024-02-28T23:53:44;10.30;55.70
2439;DHT22;14509;47.992;7.848;2024-02-28T23:55:46;10.50;55.80
2439;DHT22;14509;47.992;7.848;2024-02-28T23:57:48;10.20;55.60
2439;DHT22;14509;47.992;7.848;2024-02-28T23:59:51;10.20;55.70
